Time,TemperatureF,DewpointF,PressureIn,WindDirection,WindDirectionDegrees,WindSpeedMPH,WindSpeedGustMPH,Humidity,HourlyPrecipIn,Conditions,Clouds,dailyrainin,SoftwareType,DateUTC
2013-03-05 00:00:00,41.6,38.0,29.89,West,261,2.0,4.0,87,0.00,,,0.00,WeatherCatV1.13B119,2013-03-05 08:00:00,
2013-03-05 00:05:00,41.6,37.7,29.89,West,261,0.0,0.0,86,0.00,,,0.00,WeatherCatV1.13B119,2013-03-05 08:05:00,
2013-03-05 00:10:00,41.1,37.2,29.88,West,261,0.0,0.0,86,0.00,,,0.00,WeatherCatV1.13B119,2013-03-05 08:10:00,
2013-03-05 00:15:00,40.6,36.7,29.88,West,261,0.0,1.0,86,0.00,,,0.00,WeatherCatV1.13B119,2013-03-05 08:15:00,
2013-03-05 00:20:00,40.2,36.6,29.89,West,261,0.0,0.0,87,0.00,,,0.00,WeatherCatV1.13B119,2013-03-05 08:20:00,
2013-03-05 00:25:00,39.9,36.9,29.89,West,261,5.0,5.0,89,0.00,,,0.00,WeatherCatV1.13B119,2013-03-05 08:25:00,
2013-03-05 00:30:00,40.6,37.6,29.89,WSW,252,4.0,5.0,89,0.00,,,0.00,WeatherCatV1.13B119,2013-03-05 08:30:00,
2013-03-05 00:35:00,41.0,37.7,29.89,West,265,3.0,4.0,88,0.00,,,0.00,WeatherCatV1.13B119,2013-03-05 08:35:00,
2013-03-05 00:40:00,41.1,37.5,29.88,South,186,3.0,3.0,87,0.00,,,0.00,WeatherCatV1.13B119,2013-03-05 08:40:00,
2013-03-05 00:45:00,40.7,36.8,29.88,South,186,0.0,1.0,86,0.00,,,0.00,WeatherCatV1.13B119,2013-03-05 08:45:00,
2013-03-05 00:50:00,40.7,37.1,29.88,WNW,288,2.0,3.0,87,0.00,,,0.00,WeatherCatV1.13B119,2013-03-05 08:50:00,
2013-03-05 00:55:00,40.7,36.8,29.88,WNW,287,3.0,4.0,86,0.00,,,0.00,WeatherCatV1.13B119,2013-03-05 08:55:00,
2013-03-05 01:00:00,40.9,36.7,29.88,West,281,4.0,5.0,85,0.00,,,0.00,WeatherCatV1.13B119,2013-03-05 09:00:00,
2013-03-05 01:05:00,41.0,36.5,29.89,West,273,7.0,7.0,84,0.00,,,0.00,WeatherCatV1.13B119,2013-03-05 09:05:00,
2013-03-05 01:10:00,41.0,36.5,29.89,West,273,4.0,6.0,84,0.00,,,0.00,WeatherCatV1.13B119,2013-03-05 09:10:00,
2013-03-05 01:15:00,40.9,37.0,29.89,West,273,7.0,9.0,86,0.00,,,0.00,WeatherCatV1.13B119,2013-03-05 09:15:00,
2013-03-05 01:20:00,40.9,36.7,29.89,West,272,5.0,8.0,85,0.00,,,0.00,WeatherCatV1.13B119,2013-03-05 09:20:00,
2013-03-05 01:25:00,40.8,36.3,29.89,West,275,4.0,6.0,84,0.00,,,0.00,WeatherCatV1.13B119,2013-03-05 09:25:00,
2013-03-05 01:30:00,40.7,36.5,29.89,West,266,4.0,5.0,85,0.00,,,0.00,WeatherCatV1.13B119,2013-03-05 09:30:00,
2013-03-05 01:35:00,40.6,36.5,29.88,West,266,1.0,3.0,85,0.00,,,0.00,WeatherCatV1.13B119,2013-03-05 09:35:00,
2013-03-05 01:40:00,40.5,36.4,29.88,West,266,0.0,2.0,85,0.00,,,0.00,WeatherCatV1.13B119,2013-03-05 09:40:00,
2013-03-05 01:45:00,40.5,36.4,29.88,West,266,0.0,0.0,85,0.00,,,0.00,WeatherCatV1.13B119,2013-03-05 09:45:00,
2013-03-05 01:50:00,40.4,36.5,29.88,West,266,0.0,0.0,86,0.00,,,0.00,WeatherCatV1.13B119,2013-03-05 09:50:00,
2013-03-05 01:55:00,40.4,36.5,29.87,West,266,0.0,0.0,86,0.00,,,0.00,WeatherCatV1.13B119,2013-03-05 09:55:00,
2013-03-05 02:00:00,40.1,36.5,29.87,West,266,0.0,0.0,87,0.00,,,0.00,WeatherCatV1.13B119,2013-03-05 10:00:00,
2013-03-05 02:05:00,39.9,36.3,29.87,West,266,0.0,0.0,87,0.00,,,0.00,WeatherCatV1.13B119,2013-03-05 10:05:00,
2013-03-05 02:10:00,39.9,36.6,29.87,West,266,1.0,3.0,88,0.00,,,0.00,WeatherCatV1.13B119,2013-03-05 10:10:00,
2013-03-05 02:15:00,40.4,37.1,29.87,West,266,3.0,3.0,88,0.00,,,0.00,WeatherCatV1.13B119,2013-03-05 10:15:00,
2013-03-05 02:20:00,40.6,37.0,29.87,West,267,3.0,5.0,87,0.00,,,0.00,WeatherCatV1.13B119,2013-03-05 10:20:00,
2013-03-05 02:25:00,40.7,36.5,29.87,West,267,4.0,6.0,85,0.00,,,0.00,WeatherCatV1.13B119,2013-03-05 10:25:00,
2013-03-05 02:30:00,40.7,36.2,29.86,West,267,4.0,5.0,84,0.00,,,0.00,WeatherCatV1.13B119,2013-03-05 10:30:00,
2013-03-05 02:35:00,40.7,36.2,29.86,West,267,2.0,4.0,84,0.00,,,0.00,WeatherCatV1.13B119,2013-03-05 10:35:00,
2013-03-05 02:40:00,40.7,35.9,29.86,West,267,2.0,3.0,83,0.00,,,0.00,WeatherCatV1.13B119,2013-03-05 10:40:00,
2013-03-05 02:45:00,40.7,36.2,29.86,West,267,2.0,3.0,84,0.00,,,0.00,WeatherCatV1.13B119,2013-03-05 10:45:00,
2013-03-05 02:50:00,40.8,36.3,29.86,West,267,2.0,4.0,84,0.00,,,0.00,WeatherCatV1.13B119,2013-03-05 10:50:00,
2013-03-05 02:55:00,40.9,36.4,29.86,West,267,0.0,4.0,84,0.00,,,0.00,WeatherCatV1.13B119,2013-03-05 10:55:00,
2013-03-05 03:00:00,41.0,36.5,29.85,West,267,0.0,3.0,84,0.00,,,0.00,WeatherCatV1.13B119,2013-03-05 11:00:00,
2013-03-05 03:05:00,41.0,36.5,29.85,West,267,0.0,0.0,84,0.00,,,0.00,WeatherCatV1.13B119,2013-03-05 11:05:00,
2013-03-05 03:10:00,40.9,36.4,29.85,West,267,3.0,3.0,84,0.00,,,0.00,WeatherCatV1.13B119,2013-03-05 11:10:00,
2013-03-05 03:15:00,41.0,36.2,29.85,West,267,3.0,3.0,83,0.00,,,0.00,WeatherCatV1.13B119,2013-03-05 11:15:00,
2013-03-05 03:20:00,41.1,36.3,29.85,West,267,2.0,3.0,83,0.00,,,0.00,WeatherCatV1.13B119,2013-03-05 11:20:00,
2013-03-05 03:25:00,41.2,36.1,29.85,West,267,2.0,3.0,82,0.00,,,0.00,WeatherCatV1.13B119,2013-03-05 11:25:00,
2013-03-05 03:30:00,41.2,36.1,29.85,West,267,3.0,4.0,82,0.00,,,0.00,WeatherCatV1.13B119,2013-03-05 11:30:00,
2013-03-05 03:35:00,41.2,35.8,29.85,West,267,2.0,3.0,81,0.00,,,0.00,WeatherCatV1.13B119,2013-03-05 11:35:00,
2013-03-05 03:40:00,41.2,36.1,29.85,West,267,2.0,3.0,82,0.00,,,0.00,WeatherCatV1.13B119,2013-03-05 11:40:00,
2013-03-05 03:45:00,41.1,36.3,29.84,West,267,3.0,3.0,83,0.00,,,0.00,WeatherCatV1.13B119,2013-03-05 11:45:00,
2013-03-05 03:50:00,41.1,36.3,29.85,West,267,2.0,3.0,83,0.00,,,0.00,WeatherCatV1.13B119,2013-03-05 11:50:00,
2013-03-05 03:55:00,41.1,36.3,29.84,West,267,3.0,5.0,83,0.00,,,0.00,WeatherCatV1.13B119,2013-03-05 11:55:00,
2013-03-05 04:00:00,41.0,36.8,29.84,West,267,3.0,4.0,85,0.00,,,0.00,WeatherCatV1.13B119,2013-03-05 12:00:00,
2013-03-05 04:05:00,40.9,36.7,29.84,West,267,4.0,5.0,85,0.00,,,0.00,WeatherCatV1.13B119,2013-03-05 12:05:00,
2013-03-05 04:10:00,40.9,37.0,29.83,NW,304,2.0,4.0,86,0.00,,,0.00,WeatherCatV1.13B119,2013-03-05 12:10:00,
2013-03-05 04:15:00,41.1,36.9,29.83,NW,304,2.0,3.0,85,0.00,,,0.00,WeatherCatV1.13B119,2013-03-05 12:15:00,
2013-03-05 04:20:00,41.2,37.0,29.82,North,5,9.0,10.0,85,0.00,,,0.00,WeatherCatV1.13B119,2013-03-05 12:20:00,
2013-03-05 04:25:00,41.4,37.5,29.82,ENE,74,4.0,8.0,86,0.00,,,0.00,WeatherCatV1.13B119,2013-03-05 12:25:00,
2013-03-05 04:30:00,41.5,37.3,29.82,NE,44,3.0,3.0,85,0.00,,,0.00,WeatherCatV1.13B119,2013-03-05 12:30:00,
2013-03-05 04:35:00,41.4,37.2,29.82,NE,46,4.0,7.0,85,0.00,,,0.00,WeatherCatV1.13B119,2013-03-05 12:35:00,
2013-03-05 04:40:00,41.4,37.5,29.82,NE,54,3.0,5.0,86,0.00,,,0.00,WeatherCatV1.13B119,2013-03-05 12:40:00,
2013-03-05 04:45:00,41.5,37.9,29.81,NE,38,0.0,3.0,87,0.00,,,0.00,WeatherCatV1.13B119,2013-03-05 12:45:00,
2013-03-05 04:50:00,41.4,37.5,29.82,NE,38,0.0,0.0,86,0.00,,,0.00,WeatherCatV1.13B119,2013-03-05 12:50:00,
2013-03-05 04:55:00,41.5,37.6,29.82,NE,38,0.0,1.0,86,0.00,,,0.00,WeatherCatV1.13B119,2013-03-05 12:55:00,
2013-03-05 05:00:00,41.6,37.4,29.81,NE,38,2.0,2.0,85,0.00,,,0.00,WeatherCatV1.13B119,2013-03-05 13:00:00,
2013-03-05 05:05:00,41.8,37.6,29.81,NE,38,0.0,1.0,85,0.00,,,0.00,WeatherCatV1.13B119,2013-03-05 13:05:00,
2013-03-05 05:10:00,41.9,37.4,29.82,WNW,302,3.0,4.0,84,0.00,,,0.00,WeatherCatV1.13B119,2013-03-05 13:10:00,
2013-03-05 05:15:00,42.2,37.7,29.81,West,281,4.0,4.0,84,0.00,,,0.00,WeatherCatV1.13B119,2013-03-05 13:15:00,
2013-03-05 05:20:00,42.2,37.4,29.82,West,259,6.0,7.0,83,0.00,,,0.00,WeatherCatV1.13B119,2013-03-05 13:20:00,
2013-03-05 05:25:00,42.2,37.4,29.82,West,263,4.0,6.0,83,0.00,,,0.00,WeatherCatV1.13B119,2013-03-05 13:25:00,
2013-03-05 05:30:00,42.0,36.9,29.82,WSW,250,5.0,7.0,82,0.00,,,0.00,WeatherCatV1.13B119,2013-03-05 13:30:00,
2013-03-05 05:35:00,41.8,36.1,29.82,SW,227,5.0,7.0,80,0.00,,,0.00,WeatherCatV1.13B119,2013-03-05 13:35:00,
2013-03-05 05:40:00,41.7,36.9,29.82,SSW,202,3.0,6.0,83,0.00,,,0.00,WeatherCatV1.13B119,2013-03-05 13:40:00,
2013-03-05 05:45:00,41.5,36.7,29.81,WNW,292,9.0,9.0,83,0.00,,,0.00,WeatherCatV1.13B119,2013-03-05 13:45:00,
2013-03-05 05:50:00,41.8,36.4,29.81,West,267,6.0,10.0,81,0.00,,,0.00,WeatherCatV1.13B119,2013-03-05 13:50:00,
2013-03-05 05:55:00,41.6,36.5,29.82,SSW,198,3.0,9.0,82,0.00,,,0.00,WeatherCatV1.13B119,2013-03-05 13:55:00,
2013-03-05 06:00:00,41.5,36.7,29.82,WSW,248,2.0,5.0,83,0.00,,,0.00,WeatherCatV1.13B119,2013-03-05 14:00:00,
2013-03-05 06:05:00,41.7,36.6,29.83,SW,234,3.0,3.0,82,0.00,,,0.00,WeatherCatV1.13B119,2013-03-05 14:05:00,
2013-03-05 06:10:00,41.7,36.6,29.82,WSW,240,5.0,6.0,82,0.00,,,0.00,WeatherCatV1.13B119,2013-03-05 14:10:00,
2013-03-05 06:15:00,41.9,36.2,29.82,WSW,258,4.0,6.0,80,0.00,,,0.00,WeatherCatV1.13B119,2013-03-05 14:15:00,
2013-03-05 06:20:00,42.2,36.5,29.82,WNW,286,6.0,9.0,80,0.00,,,0.00,WeatherCatV1.13B119,2013-03-05 14:20:00,
2013-03-05 06:25:00,42.5,36.1,29.82,WNW,288,7.0,10.0,78,0.00,,,0.00,WeatherCatV1.13B119,2013-03-05 14:25:00,
2013-03-05 06:30:00,42.4,36.0,29.82,WNW,300,3.0,5.0,78,0.00,,,0.00,WeatherCatV1.13B119,2013-03-05 14:30:00,
2013-03-05 06:35:00,42.4,36.4,29.82,WNW,300,0.0,0.0,79,0.00,,,0.00,WeatherCatV1.13B119,2013-03-05 14:35:00,
2013-03-05 06:40:00,42.4,36.7,29.82,WNW,300,0.0,0.0,80,0.00,,,0.00,WeatherCatV1.13B119,2013-03-05 14:40:00,
2013-03-05 06:45:00,42.3,36.6,29.82,WNW,300,0.0,0.0,80,0.00,,,0.00,WeatherCatV1.13B119,2013-03-05 14:45:00,
2013-03-05 06:50:00,42.3,36.6,29.83,WNW,300,0.0,0.0,80,0.00,,,0.00,WeatherCatV1.13B119,2013-03-05 14:50:00,
2013-03-05 06:55:00,42.3,36.9,29.83,WNW,300,3.0,6.0,81,0.00,,,0.00,WeatherCatV1.13B119,2013-03-05 14:55:00,
2013-03-05 07:00:00,42.1,36.7,29.82,NNE,30,0.0,3.0,81,0.00,,,0.00,WeatherCatV1.13B119,2013-03-05 15:00:00,
2013-03-05 07:05:00,42.0,36.3,29.82,NNE,30,0.0,3.0,80,0.00,,,0.00,WeatherCatV1.13B119,2013-03-05 15:05:00,
2013-03-05 07:10:00,42.2,36.8,29.81,NNE,30,0.0,0.0,81,0.00,,,0.00,WeatherCatV1.13B119,2013-03-05 15:10:00,
2013-03-05 07:15:00,42.2,37.1,29.82,NNE,30,0.0,2.0,82,0.00,,,0.00,WeatherCatV1.13B119,2013-03-05 15:15:00,
2013-03-05 07:20:00,42.0,37.2,29.82,NNE,30,0.0,0.0,83,0.00,,,0.00,WeatherCatV1.13B119,2013-03-05 15:20:00,
2013-03-05 07:25:00,42.0,37.2,29.82,NNE,30,0.0,0.0,83,0.00,,,0.00,WeatherCatV1.13B119,2013-03-05 15:25:00,
2013-03-05 07:30:00,42.1,37.3,29.82,NNE,30,0.0,2.0,83,0.00,,,0.01,WeatherCatV1.13B119,2013-03-05 15:30:00,
2013-03-05 07:35:00,42.4,37.9,29.81,North,349,4.0,5.0,84,0.00,,,0.01,WeatherCatV1.13B119,2013-03-05 15:35:00,
2013-03-05 07:40:00,42.9,37.5,29.81,NW,319,7.0,8.0,81,0.00,,,0.01,WeatherCatV1.13B119,2013-03-05 15:40:00,
2013-03-05 07:45:00,43.1,37.7,29.81,NW,308,6.0,9.0,81,0.00,,,0.01,WeatherCatV1.13B119,2013-03-05 15:45:00,
2013-03-05 07:50:00,43.0,38.2,29.81,NW,304,3.0,6.0,83,0.00,,,0.01,WeatherCatV1.13B119,2013-03-05 15:50:00,
2013-03-05 07:55:00,42.8,38.0,29.81,NNW,340,3.0,4.0,83,0.00,,,0.01,WeatherCatV1.13B119,2013-03-05 15:55:00,
2013-03-05 08:00:00,42.7,38.2,29.81,NNW,341,4.0,6.0,84,0.00,,,0.01,WeatherCatV1.13B119,2013-03-05 16:00:00,
2013-03-05 08:05:00,42.6,38.7,29.82,NNW,333,7.0,7.0,86,0.00,,,0.01,WeatherCatV1.13B119,2013-03-05 16:05:00,
2013-03-05 08:10:00,42.5,38.6,29.82,NW,325,7.0,10.0,86,0.00,,,0.01,WeatherCatV1.13B119,2013-03-05 16:10:00,
2013-03-05 08:15:00,42.3,38.7,29.82,NW,326,3.0,5.0,87,0.00,,,0.01,WeatherCatV1.13B119,2013-03-05 16:15:00,
2013-03-05 08:20:00,42.3,38.7,29.83,NW,326,2.0,3.0,87,0.00,,,0.01,WeatherCatV1.13B119,2013-03-05 16:20:00,
2013-03-05 08:25:00,42.1,38.5,29.83,NW,326,1.0,2.0,87,0.00,,,0.01,WeatherCatV1.13B119,2013-03-05 16:25:00,
2013-03-05 08:30:00,42.0,38.4,29.83,NW,326,0.0,0.0,87,0.00,,,0.01,WeatherCatV1.13B119,2013-03-05 16:30:00,
2013-03-05 08:35:00,42.0,38.4,29.83,NW,326,0.0,1.0,87,0.00,,,0.01,WeatherCatV1.13B119,2013-03-05 16:35:00,
2013-03-05 08:40:00,42.1,38.8,29.83,NW,326,3.0,4.0,88,0.00,,,0.01,WeatherCatV1.13B119,2013-03-05 16:40:00,
2013-03-05 08:45:00,42.2,39.2,29.83,NW,326,1.0,3.0,89,0.00,,,0.01,WeatherCatV1.13B119,2013-03-05 16:45:00,
2013-03-05 08:50:00,42.2,38.9,29.83,West,263,2.0,3.0,88,0.00,,,0.01,WeatherCatV1.13B119,2013-03-05 16:50:00,
2013-03-05 08:55:00,42.2,39.2,29.82,West,265,2.0,4.0,89,0.00,,,0.01,WeatherCatV1.13B119,2013-03-05 16:55:00,
2013-03-05 09:00:00,42.3,39.3,29.82,NW,309,4.0,6.0,89,0.00,,,0.01,WeatherCatV1.13B119,2013-03-05 17:00:00,
2013-03-05 09:05:00,42.3,39.6,29.82,NW,311,3.0,5.0,90,0.00,,,0.01,WeatherCatV1.13B119,2013-03-05 17:05:00,
2013-03-05 09:10:00,42.4,39.7,29.82,NW,321,4.0,5.0,90,0.00,,,0.01,WeatherCatV1.13B119,2013-03-05 17:10:00,
2013-03-05 09:15:00,42.5,39.5,29.83,NW,319,3.0,4.0,89,0.00,,,0.01,WeatherCatV1.13B119,2013-03-05 17:15:00,
2013-03-05 09:20:00,42.5,39.5,29.83,NNW,346,2.0,4.0,89,0.00,,,0.01,WeatherCatV1.13B119,2013-03-05 17:20:00,
2013-03-05 09:25:00,42.7,39.7,29.83,NNW,346,0.0,4.0,89,0.00,,,0.01,WeatherCatV1.13B119,2013-03-05 17:25:00,
2013-03-05 09:30:00,42.8,40.1,29.83,NNW,346,0.0,0.0,90,0.00,,,0.01,WeatherCatV1.13B119,2013-03-05 17:30:00,
2013-03-05 09:35:00,43.0,40.0,29.83,NNW,347,2.0,4.0,89,0.00,,,0.01,WeatherCatV1.13B119,2013-03-05 17:35:00,
2013-03-05 09:40:00,43.2,40.5,29.83,NNW,347,0.0,1.0,90,0.00,,,0.01,WeatherCatV1.13B119,2013-03-05 17:40:00,
2013-03-05 09:45:00,43.3,40.3,29.83,NE,55,0.0,3.0,89,0.00,,,0.01,WeatherCatV1.13B119,2013-03-05 17:45:00,
2013-03-05 09:46:00,43.3,40.3,29.83,NE,55,1.0,2.0,89,0.00,,,0.01,WeatherCatV1.13B119,2013-03-05 17:46:00,
2013-03-05 09:51:00,43.3,40.0,29.83,NE,55,2.0,2.0,88,0.00,,,0.01,WeatherCatV1.13B119,2013-03-05 17:51:00,
2013-03-05 09:56:00,43.3,40.0,29.83,NE,55,0.0,3.0,88,0.00,,,0.01,WeatherCatV1.13B119,2013-03-05 17:56:00,
2013-03-05 10:01:00,43.4,40.4,29.82,NE,55,2.0,2.0,89,0.00,,,0.01,WeatherCatV1.13B119,2013-03-05 18:01:00,
2013-03-05 10:06:00,43.4,40.1,29.82,North,355,2.0,4.0,88,0.00,,,0.01,WeatherCatV1.13B119,2013-03-05 18:06:00,
2013-03-05 10:11:00,43.4,40.1,29.82,North,355,2.0,3.0,88,0.00,,,0.01,WeatherCatV1.13B119,2013-03-05 18:11:00,
2013-03-05 10:16:00,43.5,40.2,29.82,NNW,333,3.0,5.0,88,0.00,,,0.01,WeatherCatV1.13B119,2013-03-05 18:16:00,
2013-03-05 10:21:00,43.5,40.2,29.82,NNW,333,2.0,4.0,88,0.00,,,0.01,WeatherCatV1.13B119,2013-03-05 18:21:00,
2013-03-05 10:26:00,43.6,40.3,29.82,NNW,333,1.0,3.0,88,0.00,,,0.01,WeatherCatV1.13B119,2013-03-05 18:26:00,
2013-03-05 10:31:00,43.6,40.3,29.81,NNW,333,1.0,3.0,88,0.00,,,0.01,WeatherCatV1.13B119,2013-03-05 18:31:00,
2013-03-05 10:36:00,43.7,40.7,29.81,NNW,333,1.0,1.0,89,0.00,,,0.01,WeatherCatV1.13B119,2013-03-05 18:36:00,
2013-03-05 10:41:00,43.8,40.5,29.81,NNW,333,0.0,0.0,88,0.00,,,0.01,WeatherCatV1.13B119,2013-03-05 18:41:00,
2013-03-05 10:42:00,43.8,40.5,29.81,NNW,333,0.0,0.0,88,0.00,,,0.01,WeatherCatV1.13B119,2013-03-05 18:42:00,
2013-03-05 10:47:00,43.9,40.6,29.81,NNW,333,0.0,1.0,88,0.00,,,0.01,WeatherCatV1.13B119,2013-03-05 18:47:00,
2013-03-05 10:52:00,43.9,40.6,29.81,NNW,333,2.0,4.0,88,0.00,,,0.01,WeatherCatV1.13B119,2013-03-05 18:52:00,
2013-03-05 10:57:00,44.1,41.1,29.81,NNW,333,6.0,6.0,89,0.00,,,0.01,WeatherCatV1.13B119,2013-03-05 18:57:00,
2013-03-05 11:02:00,44.2,40.9,29.81,NW,304,4.0,6.0,88,0.00,,,0.01,WeatherCatV1.13B119,2013-03-05 19:02:00,
2013-03-05 11:07:00,44.2,40.9,29.81,WNW,302,4.0,5.0,88,0.00,,,0.01,WeatherCatV1.13B119,2013-03-05 19:07:00,
2013-03-05 11:12:00,44.2,40.9,29.80,West,277,4.0,5.0,88,0.00,,,0.01,WeatherCatV1.13B119,2013-03-05 19:12:00,
2013-03-05 11:17:00,44.2,40.9,29.80,West,276,3.0,4.0,88,0.00,,,0.01,WeatherCatV1.13B119,2013-03-05 19:17:00,
2013-03-05 11:22:00,44.3,41.3,29.80,West,276,2.0,3.0,89,0.00,,,0.01,WeatherCatV1.13B119,2013-03-05 19:22:00,
2013-03-05 11:27:00,44.4,41.4,29.81,West,269,5.0,5.0,89,0.00,,,0.01,WeatherCatV1.13B119,2013-03-05 19:27:00,
2013-03-05 11:32:00,44.4,41.4,29.81,West,271,3.0,4.0,89,0.00,,,0.01,WeatherCatV1.13B119,2013-03-05 19:32:00,
2013-03-05 11:37:00,44.5,41.8,29.81,West,270,1.0,2.0,90,0.00,,,0.01,WeatherCatV1.13B119,2013-03-05 19:37:00,
2013-03-05 11:42:00,44.5,41.8,29.81,West,270,1.0,3.0,90,0.00,,,0.01,WeatherCatV1.13B119,2013-03-05 19:42:00,
2013-03-05 11:47:00,44.6,41.6,29.80,West,270,2.0,3.0,89,0.00,,,0.01,WeatherCatV1.13B119,2013-03-05 19:47:00,
2013-03-05 11:52:00,44.7,41.9,29.80,West,270,2.0,3.0,90,0.00,,,0.01,WeatherCatV1.13B119,2013-03-05 19:52:00,
2013-03-05 11:57:00,44.8,42.0,29.80,West,271,4.0,4.0,90,0.00,,,0.01,WeatherCatV1.13B119,2013-03-05 19:57:00,
2013-03-05 12:02:00,44.9,41.9,29.80,West,271,4.0,5.0,89,0.00,,,0.01,WeatherCatV1.13B119,2013-03-05 20:02:00,
2013-03-05 12:07:00,45.1,42.1,29.80,West,271,5.0,6.0,89,0.00,,,0.01,WeatherCatV1.13B119,2013-03-05 20:07:00,
2013-03-05 12:12:00,45.2,42.2,29.80,West,268,5.0,6.0,89,0.00,,,0.01,WeatherCatV1.13B119,2013-03-05 20:12:00,
2013-03-05 12:17:00,45.3,42.0,29.80,West,272,5.0,6.0,88,0.00,,,0.01,WeatherCatV1.13B119,2013-03-05 20:17:00,
2013-03-05 12:22:00,45.2,41.9,29.80,West,272,6.0,9.0,88,0.00,,,0.01,WeatherCatV1.13B119,2013-03-05 20:22:00,
2013-03-05 12:27:00,45.3,41.7,29.80,WNW,282,6.0,10.0,87,0.00,,,0.01,WeatherCatV1.13B119,2013-03-05 20:27:00,
2013-03-05 12:32:00,45.4,41.8,29.80,WNW,282,4.0,5.0,87,0.00,,,0.01,WeatherCatV1.13B119,2013-03-05 20:32:00,
2013-03-05 12:37:00,45.4,41.5,29.80,West,280,3.0,5.0,86,0.00,,,0.01,WeatherCatV1.13B119,2013-03-05 20:37:00,
2013-03-05 12:42:00,45.5,41.6,29.80,West,271,5.0,6.0,86,0.00,,,0.01,WeatherCatV1.13B119,2013-03-05 20:42:00,
2013-03-05 12:47:00,45.4,41.2,29.80,WNW,296,5.0,6.0,85,0.00,,,0.01,WeatherCatV1.13B119,2013-03-05 20:47:00,
2013-03-05 12:52:00,45.5,41.3,29.80,WNW,285,5.0,5.0,85,0.00,,,0.01,WeatherCatV1.13B119,2013-03-05 20:52:00,
2013-03-05 12:57:00,45.6,41.4,29.79,WNW,296,4.0,5.0,85,0.00,,,0.01,WeatherCatV1.13B119,2013-03-05 20:57:00,
2013-03-05 13:02:00,45.7,41.5,29.79,West,280,4.0,5.0,85,0.00,,,0.01,WeatherCatV1.13B119,2013-03-05 21:02:00,
2013-03-05 13:07:00,45.8,41.2,29.79,WNW,291,4.0,5.0,84,0.00,,,0.01,WeatherCatV1.13B119,2013-03-05 21:07:00,
2013-03-05 13:12:00,45.8,40.9,29.79,WNW,295,3.0,6.0,83,0.00,,,0.01,WeatherCatV1.13B119,2013-03-05 21:12:00,
2013-03-05 13:17:00,45.9,41.3,29.79,WNW,300,3.0,4.0,84,0.00,,,0.01,WeatherCatV1.13B119,2013-03-05 21:17:00,
2013-03-05 13:22:00,45.9,40.7,29.79,WNW,289,3.0,3.0,82,0.00,,,0.01,WeatherCatV1.13B119,2013-03-05 21:22:00,
2013-03-05 13:27:00,46.0,40.8,29.78,WNW,290,3.0,4.0,82,0.00,,,0.01,WeatherCatV1.13B119,2013-03-05 21:27:00,
2013-03-05 13:32:00,46.1,40.6,29.78,WNW,291,4.0,4.0,81,0.00,,,0.01,WeatherCatV1.13B119,2013-03-05 21:32:00,
2013-03-05 13:37:00,46.1,40.6,29.78,WNW,291,4.0,5.0,81,0.00,,,0.01,WeatherCatV1.13B119,2013-03-05 21:37:00,
2013-03-05 13:42:00,46.1,40.6,29.77,WNW,292,4.0,5.0,81,0.00,,,0.01,WeatherCatV1.13B119,2013-03-05 21:42:00,
2013-03-05 13:47:00,46.1,40.3,29.77,WNW,292,4.0,4.0,80,0.00,,,0.01,WeatherCatV1.13B119,2013-03-05 21:47:00,
2013-03-05 13:52:00,46.2,40.4,29.77,WNW,286,4.0,4.0,80,0.00,,,0.01,WeatherCatV1.13B119,2013-03-05 21:52:00,
2013-03-05 13:57:00,46.2,40.4,29.77,WNW,286,3.0,4.0,80,0.00,,,0.01,WeatherCatV1.13B119,2013-03-05 21:57:00,
2013-03-05 14:02:00,46.3,40.5,29.77,WNW,286,3.0,4.0,80,0.00,,,0.01,WeatherCatV1.13B119,2013-03-05 22:02:00,
2013-03-05 14:07:00,46.3,40.5,29.78,West,277,3.0,3.0,80,0.00,,,0.01,WeatherCatV1.13B119,2013-03-05 22:07:00,
2013-03-05 14:12:00,46.3,40.5,29.77,West,278,3.0,4.0,80,0.00,,,0.01,WeatherCatV1.13B119,2013-03-05 22:12:00,
2013-03-05 14:17:00,46.3,40.5,29.77,West,278,4.0,4.0,80,0.00,,,0.01,WeatherCatV1.13B119,2013-03-05 22:17:00,
2013-03-05 14:22:00,46.3,40.5,29.77,West,278,2.0,3.0,80,0.00,,,0.01,WeatherCatV1.13B119,2013-03-05 22:22:00,
2013-03-05 14:27:00,46.3,40.5,29.77,WNW,296,3.0,4.0,80,0.00,,,0.01,WeatherCatV1.13B119,2013-03-05 22:27:00,
2013-03-05 14:32:00,46.3,40.5,29.77,WNW,297,2.0,5.0,80,0.00,,,0.01,WeatherCatV1.13B119,2013-03-05 22:32:00,
2013-03-05 14:37:00,46.3,40.8,29.77,WNW,300,5.0,5.0,81,0.00,,,0.01,WeatherCatV1.13B119,2013-03-05 22:37:00,
2013-03-05 14:42:00,46.4,41.2,29.77,WNW,300,2.0,4.0,82,0.00,,,0.01,WeatherCatV1.13B119,2013-03-05 22:42:00,
2013-03-05 14:47:00,46.3,40.8,29.77,WNW,300,3.0,4.0,81,0.00,,,0.01,WeatherCatV1.13B119,2013-03-05 22:47:00,
2013-03-05 14:52:00,46.4,41.2,29.77,WNW,300,3.0,5.0,82,0.00,,,0.01,WeatherCatV1.13B119,2013-03-05 22:52:00,
2013-03-05 14:57:00,46.3,41.1,29.77,WNW,300,3.0,3.0,82,0.00,,,0.01,WeatherCatV1.13B119,2013-03-05 22:57:00,
2013-03-05 15:02:00,46.3,41.1,29.77,WNW,300,3.0,4.0,82,0.00,,,0.01,WeatherCatV1.13B119,2013-03-05 23:02:00,
2013-03-05 15:07:00,46.4,41.2,29.77,West,275,4.0,5.0,82,0.00,,,0.01,WeatherCatV1.13B119,2013-03-05 23:07:00,
2013-03-05 15:12:00,46.3,41.1,29.77,West,278,4.0,4.0,82,0.00,,,0.01,WeatherCatV1.13B119,2013-03-05 23:12:00,
2013-03-05 15:17:00,46.3,41.1,29.77,WNW,289,5.0,5.0,82,0.00,,,0.01,WeatherCatV1.13B119,2013-03-05 23:17:00,
2013-03-05 15:22:00,46.2,40.4,29.77,West,277,4.0,6.0,80,0.00,,,0.01,WeatherCatV1.13B119,2013-03-05 23:22:00,
2013-03-05 15:27:00,46.1,40.9,29.77,WNW,285,4.0,5.0,82,0.00,,,0.01,WeatherCatV1.13B119,2013-03-05 23:27:00,
2013-03-05 15:32:00,46.1,40.6,29.77,WNW,282,4.0,4.0,81,0.00,,,0.01,WeatherCatV1.13B119,2013-03-05 23:32:00,
2013-03-05 15:37:00,46.0,40.5,29.77,West,277,4.0,5.0,81,0.00,,,0.01,WeatherCatV1.13B119,2013-03-05 23:37:00,
2013-03-05 15:42:00,46.0,40.8,29.77,WNW,284,3.0,5.0,82,0.00,,,0.01,WeatherCatV1.13B119,2013-03-05 23:42:00,
2013-03-05 15:47:00,45.9,40.7,29.77,WNW,284,4.0,4.0,82,0.00,,,0.01,WeatherCatV1.13B119,2013-03-05 23:47:00,
2013-03-05 15:52:00,45.8,40.9,29.77,WNW,289,5.0,6.0,83,0.00,,,0.01,WeatherCatV1.13B119,2013-03-05 23:52:00,
2013-03-05 15:57:00,45.7,40.5,29.76,WNW,286,6.0,7.0,82,0.00,,,0.01,WeatherCatV1.13B119,2013-03-05 23:57:00,
2013-03-05 16:02:00,45.6,41.0,29.76,WNW,292,4.0,5.0,84,0.00,,,0.01,WeatherCatV1.13B119,2013-03-06 00:02:00,
2013-03-05 16:07:00,45.5,41.0,29.77,West,277,4.0,6.0,84,0.00,,,0.01,WeatherCatV1.13B119,2013-03-06 00:07:00,
2013-03-05 16:12:00,45.4,41.2,29.77,West,281,3.0,4.0,85,0.00,,,0.01,WeatherCatV1.13B119,2013-03-06 00:12:00,
2013-03-05 16:17:00,45.4,41.5,29.76,WNW,293,3.0,5.0,86,0.00,,,0.01,WeatherCatV1.13B119,2013-03-06 00:17:00,
2013-03-05 16:22:00,45.3,41.4,29.76,NW,304,3.0,5.0,86,0.00,,,0.01,WeatherCatV1.13B119,2013-03-06 00:22:00,
2013-03-05 16:27:00,45.2,41.3,29.76,NW,315,4.0,4.0,86,0.00,,,0.02,WeatherCatV1.13B119,2013-03-06 00:27:00,
2013-03-05 16:32:00,45.2,41.6,29.77,NNW,327,4.0,5.0,87,0.00,,,0.02,WeatherCatV1.13B119,2013-03-06 00:32:00,
2013-03-05 16:37:00,45.1,41.5,29.76,NNW,328,2.0,3.0,87,0.00,,,0.02,WeatherCatV1.13B119,2013-03-06 00:37:00,
2013-03-05 16:42:00,45.0,41.4,29.76,NNW,328,1.0,2.0,87,0.00,,,0.02,WeatherCatV1.13B119,2013-03-06 00:42:00,
2013-03-05 16:47:00,45.0,41.7,29.76,NNW,328,3.0,3.0,88,0.00,,,0.02,WeatherCatV1.13B119,2013-03-06 00:47:00,
2013-03-05 16:52:00,44.9,41.6,29.76,NNW,328,3.0,3.0,88,0.00,,,0.02,WeatherCatV1.13B119,2013-03-06 00:52:00,
2013-03-05 16:57:00,44.8,41.5,29.76,NNW,328,3.0,4.0,88,0.00,,,0.03,WeatherCatV1.13B119,2013-03-06 00:57:00,
2013-03-05 17:02:00,44.8,41.8,29.76,NNW,328,3.0,4.0,89,0.00,,,0.03,WeatherCatV1.13B119,2013-03-06 01:02:00,
2013-03-05 17:07:00,44.8,41.8,29.76,NNW,328,4.0,4.0,89,0.00,,,0.03,WeatherCatV1.13B119,2013-03-06 01:07:00,
2013-03-05 17:12:00,44.7,41.7,29.76,NW,323,2.0,4.0,89,0.00,,,0.03,WeatherCatV1.13B119,2013-03-06 01:12:00,
2013-03-05 17:17:00,44.7,41.9,29.76,NW,323,4.0,5.0,90,0.00,,,0.03,WeatherCatV1.13B119,2013-03-06 01:17:00,
2013-03-05 17:22:00,44.7,41.9,29.76,NNW,328,4.0,5.0,90,0.00,,,0.04,WeatherCatV1.13B119,2013-03-06 01:22:00,
2013-03-05 17:27:00,44.6,41.8,29.76,NNW,328,3.0,4.0,90,0.00,,,0.04,WeatherCatV1.13B119,2013-03-06 01:27:00,
2013-03-05 17:32:00,44.6,41.8,29.76,NNW,328,3.0,4.0,90,0.00,,,0.04,WeatherCatV1.13B119,2013-03-06 01:32:00,
2013-03-05 17:37:00,44.5,41.8,29.76,NNW,328,4.0,4.0,90,0.00,,,0.04,WeatherCatV1.13B119,2013-03-06 01:37:00,
2013-03-05 17:42:00,44.5,42.0,29.76,NNW,328,3.0,4.0,91,0.00,,,0.04,WeatherCatV1.13B119,2013-03-06 01:42:00,
2013-03-05 17:47:00,44.5,42.0,29.76,NNW,328,0.0,2.0,91,0.00,,,0.05,WeatherCatV1.13B119,2013-03-06 01:47:00,
2013-03-05 17:52:00,44.4,41.9,29.76,NNW,328,3.0,4.0,91,0.00,,,0.05,WeatherCatV1.13B119,2013-03-06 01:52:00,
2013-03-05 17:57:00,44.5,42.0,29.76,NNW,328,2.0,3.0,91,0.05,,,0.06,WeatherCatV1.13B119,2013-03-06 01:57:00,
2013-03-05 18:02:00,44.5,42.3,29.76,North,5,3.0,5.0,92,0.05,,,0.06,WeatherCatV1.13B119,2013-03-06 02:02:00,
2013-03-05 18:07:00,44.5,42.0,29.76,North,350,6.0,6.0,91,0.05,,,0.06,WeatherCatV1.13B119,2013-03-06 02:07:00,
2013-03-05 18:12:00,44.3,41.8,29.76,NNW,334,5.0,6.0,91,0.04,,,0.07,WeatherCatV1.13B119,2013-03-06 02:12:00,
2013-03-05 18:17:00,44.2,41.7,29.76,NNW,342,4.0,7.0,91,0.10,,,0.08,WeatherCatV1.13B119,2013-03-06 02:17:00,
2013-03-05 18:22:00,44.3,42.1,29.76,NNW,346,4.0,7.0,92,0.10,,,0.08,WeatherCatV1.13B119,2013-03-06 02:22:00,
2013-03-05 18:27:00,44.3,42.1,29.76,North,0,7.0,7.0,92,0.06,,,0.08,WeatherCatV1.13B119,2013-03-06 02:27:00,
2013-03-05 18:32:00,44.2,41.7,29.76,NNW,342,4.0,6.0,91,0.04,,,0.08,WeatherCatV1.13B119,2013-03-06 02:32:00,
2013-03-05 18:37:00,44.2,41.7,29.76,NNW,348,7.0,9.0,91,0.00,,,0.08,WeatherCatV1.13B119,2013-03-06 02:37:00,
2013-03-05 18:43:00,44.2,41.7,29.76,North,355,9.0,9.0,91,0.00,,,0.09,WeatherCatV1.13B119,2013-03-06 02:43:00,
2013-03-05 18:48:00,44.2,42.0,29.76,NNW,339,5.0,7.0,92,0.00,,,0.09,WeatherCatV1.13B119,2013-03-06 02:48:00,
2013-03-05 18:53:00,44.2,42.0,29.76,NNW,348,6.0,8.0,92,0.00,,,0.09,WeatherCatV1.13B119,2013-03-06 02:53:00,
2013-03-05 18:58:00,44.1,41.9,29.76,NNW,348,6.0,10.0,92,0.00,,,0.09,WeatherCatV1.13B119,2013-03-06 02:58:00,
2013-03-05 19:03:00,44.0,41.8,29.76,NNW,348,6.0,10.0,92,0.00,,,0.09,WeatherCatV1.13B119,2013-03-06 03:03:00,
2013-03-05 19:08:00,44.1,41.9,29.76,NNW,348,6.0,7.0,92,0.00,,,0.09,WeatherCatV1.13B119,2013-03-06 03:08:00,
2013-03-05 19:13:00,44.1,41.9,29.76,North,350,6.0,8.0,92,0.00,,,0.09,WeatherCatV1.13B119,2013-03-06 03:13:00,
2013-03-05 19:18:00,44.0,41.8,29.76,North,0,5.0,6.0,92,0.00,,,0.09,WeatherCatV1.13B119,2013-03-06 03:18:00,
2013-03-05 19:23:00,44.0,42.1,29.76,North,5,5.0,5.0,93,0.00,,,0.09,WeatherCatV1.13B119,2013-03-06 03:23:00,
2013-03-05 19:28:00,44.0,42.1,29.76,NNE,19,7.0,7.0,93,0.00,,,0.09,WeatherCatV1.13B119,2013-03-06 03:28:00,
2013-03-05 19:33:00,43.9,42.0,29.75,NNE,19,5.0,7.0,93,0.00,,,0.09,WeatherCatV1.13B119,2013-03-06 03:33:00,
2013-03-05 19:38:00,43.8,41.9,29.76,NNE,19,6.0,7.0,93,0.00,,,0.09,WeatherCatV1.13B119,2013-03-06 03:38:00,
2013-03-05 19:43:00,43.8,41.9,29.75,NNE,26,5.0,7.0,93,0.00,,,0.09,WeatherCatV1.13B119,2013-03-06 03:43:00,
2013-03-05 19:48:00,43.6,41.7,29.75,NNE,16,6.0,7.0,93,0.00,,,0.09,WeatherCatV1.13B119,2013-03-06 03:48:00,
2013-03-05 19:53:00,43.6,41.7,29.75,North,5,6.0,6.0,93,0.00,,,0.09,WeatherCatV1.13B119,2013-03-06 03:53:00,
2013-03-05 19:58:00,43.5,41.3,29.75,NNE,15,5.0,7.0,92,0.00,,,0.09,WeatherCatV1.13B119,2013-03-06 03:58:00,
2013-03-05 20:03:00,43.5,41.3,29.75,NE,53,1.0,3.0,92,0.00,,,0.09,WeatherCatV1.13B119,2013-03-06 04:03:00,
2013-03-05 20:08:00,43.4,41.2,29.75,ENE,70,2.0,4.0,92,0.00,,,0.09,WeatherCatV1.13B119,2013-03-06 04:08:00,
2013-03-05 20:13:00,43.4,41.2,29.74,ENE,70,3.0,3.0,92,0.00,,,0.09,WeatherCatV1.13B119,2013-03-06 04:13:00,
2013-03-05 20:18:00,43.2,41.0,29.75,ENE,63,3.0,3.0,92,0.00,,,0.09,WeatherCatV1.13B119,2013-03-06 04:18:00,
2013-03-05 20:23:00,43.1,40.9,29.75,ENE,67,0.0,3.0,92,0.00,,,0.09,WeatherCatV1.13B119,2013-03-06 04:23:00,
2013-03-05 20:28:00,43.1,40.9,29.75,ENE,67,0.0,0.0,92,0.00,,,0.09,WeatherCatV1.13B119,2013-03-06 04:28:00,
2013-03-05 20:33:00,43.1,41.2,29.74,NNE,19,5.0,5.0,93,0.00,,,0.10,WeatherCatV1.13B119,2013-03-06 04:33:00,
2013-03-05 20:38:00,43.1,41.2,29.74,NNE,16,4.0,6.0,93,0.00,,,0.10,WeatherCatV1.13B119,2013-03-06 04:38:00,
2013-03-05 20:43:00,43.2,41.3,29.74,NNE,22,5.0,5.0,93,0.00,,,0.10,WeatherCatV1.13B119,2013-03-06 04:43:00,
2013-03-05 20:48:00,43.3,41.4,29.74,NNE,28,4.0,5.0,93,0.00,,,0.10,WeatherCatV1.13B119,2013-03-06 04:48:00,
2013-03-05 20:53:00,43.3,41.1,29.74,NNE,29,4.0,6.0,92,0.00,,,0.10,WeatherCatV1.13B119,2013-03-06 04:53:00,
2013-03-05 20:58:00,43.3,41.4,29.74,NNE,17,5.0,5.0,93,0.00,,,0.10,WeatherCatV1.13B119,2013-03-06 04:58:00,
2013-03-05 21:00:00,43.3,41.4,29.74,NNE,19,5.0,6.0,93,0.00,,,0.10,WeatherCatV1.13B119,2013-03-06 05:00:00,
2013-03-05 21:05:00,43.3,41.4,29.74,NNE,30,3.0,6.0,93,0.00,,,0.10,WeatherCatV1.13B119,2013-03-06 05:05:00,
2013-03-05 21:10:00,43.4,41.5,29.74,NE,55,4.0,5.0,93,0.00,,,0.10,WeatherCatV1.13B119,2013-03-06 05:10:00,
2013-03-05 21:15:00,43.3,41.1,29.74,NNE,27,5.0,6.0,92,0.00,,,0.10,WeatherCatV1.13B119,2013-03-06 05:15:00,
2013-03-05 21:20:00,43.2,41.0,29.74,NNE,19,4.0,7.0,92,0.00,,,0.10,WeatherCatV1.13B119,2013-03-06 05:20:00,
2013-03-05 21:25:00,43.2,41.0,29.74,NNE,30,5.0,6.0,92,0.00,,,0.10,WeatherCatV1.13B119,2013-03-06 05:25:00,
2013-03-05 21:30:00,43.2,41.0,29.73,NNE,28,4.0,5.0,92,0.00,,,0.10,WeatherCatV1.13B119,2013-03-06 05:30:00,
2013-03-05 21:35:00,43.2,41.0,29.74,NNE,14,3.0,6.0,92,0.00,,,0.10,WeatherCatV1.13B119,2013-03-06 05:35:00,
2013-03-05 21:40:00,43.2,41.0,29.73,NNE,13,5.0,7.0,92,0.00,,,0.10,WeatherCatV1.13B119,2013-03-06 05:40:00,
2013-03-05 21:45:00,43.2,41.0,29.73,NNE,14,3.0,4.0,92,0.00,,,0.10,WeatherCatV1.13B119,2013-03-06 05:45:00,
2013-03-05 21:50:00,43.1,40.9,29.73,North,10,3.0,3.0,92,0.00,,,0.10,WeatherCatV1.13B119,2013-03-06 05:50:00,
2013-03-05 21:55:00,43.2,41.0,29.73,North,5,0.0,4.0,92,0.00,,,0.10,WeatherCatV1.13B119,2013-03-06 05:55:00,
2013-03-05 22:00:00,43.2,41.0,29.73,North,5,2.0,4.0,92,0.00,,,0.10,WeatherCatV1.13B119,2013-03-06 06:00:00,
2013-03-05 22:05:00,43.2,41.0,29.73,NNE,31,0.0,3.0,92,0.00,,,0.10,WeatherCatV1.13B119,2013-03-06 06:05:00,
2013-03-05 22:10:00,43.2,41.0,29.73,NNE,31,0.0,2.0,92,0.00,,,0.10,WeatherCatV1.13B119,2013-03-06 06:10:00,
2013-03-05 22:15:00,43.1,41.2,29.72,NNE,31,0.0,0.0,93,0.00,,,0.10,WeatherCatV1.13B119,2013-03-06 06:15:00,
2013-03-05 22:20:00,43.1,41.2,29.72,NNE,31,0.0,0.0,93,0.00,,,0.10,WeatherCatV1.13B119,2013-03-06 06:20:00,
2013-03-05 22:25:00,43.0,41.1,29.72,NNE,31,0.0,0.0,93,0.00,,,0.10,WeatherCatV1.13B119,2013-03-06 06:25:00,
2013-03-05 22:30:00,42.9,41.0,29.72,NNE,31,0.0,1.0,93,0.00,,,0.10,WeatherCatV1.13B119,2013-03-06 06:30:00,
2013-03-05 22:35:00,42.8,40.9,29.72,NNE,31,0.0,0.0,93,0.00,,,0.10,WeatherCatV1.13B119,2013-03-06 06:35:00,
2013-03-05 22:40:00,42.7,40.8,29.71,NNE,31,0.0,0.0,93,0.00,,,0.10,WeatherCatV1.13B119,2013-03-06 06:40:00,
2013-03-05 22:45:00,42.6,41.0,29.71,NNE,31,0.0,0.0,94,0.00,,,0.10,WeatherCatV1.13B119,2013-03-06 06:45:00,
2013-03-05 22:50:00,42.6,41.0,29.71,NNE,31,0.0,1.0,94,0.00,,,0.10,WeatherCatV1.13B119,2013-03-06 06:50:00,
2013-03-05 22:55:00,42.6,41.0,29.71,NNE,31,0.0,0.0,94,0.00,,,0.10,WeatherCatV1.13B119,2013-03-06 06:55:00,
2013-03-05 23:00:00,42.6,41.0,29.71,NNE,31,0.0,0.0,94,0.00,,,0.10,WeatherCatV1.13B119,2013-03-06 07:00:00,
2013-03-05 23:05:00,42.6,41.0,29.71,NNE,31,0.0,0.0,94,0.00,,,0.10,WeatherCatV1.13B119,2013-03-06 07:05:00,
2013-03-05 23:10:00,42.6,41.0,29.70,NNE,31,0.0,0.0,94,0.00,,,0.10,WeatherCatV1.13B119,2013-03-06 07:10:00,
2013-03-05 23:15:00,42.7,41.1,29.70,North,0,3.0,4.0,94,0.00,,,0.10,WeatherCatV1.13B119,2013-03-06 07:15:00,
2013-03-05 23:20:00,42.8,41.5,29.70,North,5,3.0,6.0,95,0.00,,,0.10,WeatherCatV1.13B119,2013-03-06 07:20:00,
2013-03-05 23:25:00,42.9,41.3,29.70,North,5,0.0,4.0,94,0.00,,,0.10,WeatherCatV1.13B119,2013-03-06 07:25:00,
2013-03-05 23:30:00,42.9,41.3,29.70,NNE,13,0.0,3.0,94,0.00,,,0.10,WeatherCatV1.13B119,2013-03-06 07:30:00,
2013-03-05 23:35:00,42.9,41.3,29.70,NE,43,1.0,3.0,94,0.00,,,0.10,WeatherCatV1.13B119,2013-03-06 07:35:00,
2013-03-05 23:40:00,42.9,41.3,29.69,NNE,32,0.0,1.0,94,0.00,,,0.10,WeatherCatV1.13B119,2013-03-06 07:40:00,
2013-03-05 23:45:00,42.9,41.3,29.69,NE,38,3.0,4.0,94,0.00,,,0.10,WeatherCatV1.13B119,2013-03-06 07:45:00,
2013-03-05 23:50:00,42.9,41.3,29.69,NE,43,1.0,3.0,94,0.00,,,0.10,WeatherCatV1.13B119,2013-03-06 07:50:00,
2013-03-05 23:55:00,42.9,41.3,29.69,NE,49,1.0,4.0,94,0.00,,,0.10,WeatherCatV1.13B119,2013-03-06 07:55:00,